Time;durP1;ratioP1;P1;durP2;ratioP2;P2;SDS_P1;SDS_P2;PMS_P1;PMS_P2;Temp;Humidity;BMP_temperature;BMP_pressure;BME280_temperature;BME280_humidity;BME280_pressure;Samples;Min_cycle;Max_cycle;Signal;HPM_P1;HPM_P2
2022/04/17 00:00:16;;;;;;;2.90;2.60;;;;;;;;;;5038565;28;20244;-61
2022/04/17 00:02:43;;;;;;;3.00;2.60;;;;;;;;;;5070373;28;20275;-61
2022/04/17 00:05:10;;;;;;;2.90;2.60;;;;;;;;;;5067442;28;20561;-61
2022/04/17 00:07:38;;;;;;;2.70;2.50;;;;;;;;;;5065062;28;20929;-62
2022/04/17 00:10:06;;;;;;;2.97;2.70;;;;;;;;;;5076562;28;20259;-62
2022/04/17 00:12:33;;;;;;;3.43;2.83;;;;;;;;;;5045038;28;20198;-61
2022/04/17 00:15:02;;;;;;;2.70;2.50;;;;;;;;;;5066939;28;20233;-63
2022/04/17 00:17:30;;;;;;;2.87;2.57;;;;;;;;;;5051493;28;20189;-62
2022/04/17 00:19:57;;;;;;;3.63;3.07;;;;;;;;;;5065287;28;20225;-61
2022/04/17 00:22:25;;;;;;;3.30;2.93;;;;;;;;;;5068636;28;20271;-61
2022/04/17 00:24:52;;;;;;;2.70;2.50;;;;;;;;;;5067710;28;20876;-60
2022/04/17 00:27:20;;;;;;;2.73;2.53;;;;;;;;;;5049895;28;20259;-62
2022/04/17 00:29:47;;;;;;;3.33;2.93;;;;;;;;;;5060830;28;20201;-61
2022/04/17 00:32:14;;;;;;;2.90;2.60;;;;;;;;;;5047115;28;20259;-61
2022/04/17 00:34:44;;;;;;;2.77;2.47;;;;;;;;;;5069948;28;20259;-62
2022/04/17 00:37:12;;;;;;;3.20;2.90;;;;;;;;;;5066848;28;20374;-61
2022/04/17 00:39:40;;;;;;;5.23;2.73;;;;;;;;;;5069744;28;20552;-61
2022/04/17 00:42:13;;;;;;;3.10;2.80;;;;;;;;;;5039171;28;20218;-62
2022/04/17 00:44:44;;;;;;;2.97;2.67;;;;;;;;;;5066184;28;20206;-62
2022/04/17 00:47:15;;;;;;;2.70;2.50;;;;;;;;;;5066941;28;20271;-61
2022/04/17 00:49:49;;;;;;;2.90;2.60;;;;;;;;;;5069981;28;20648;-61
2022/04/17 00:52:21;;;;;;;2.97;2.67;;;;;;;;;;5069421;28;20204;-61
2022/04/17 00:55:12;;;;;;;3.30;2.67;;;;;;;;;;5063519;28;20201;-61
2022/04/17 00:57:44;;;;;;;2.90;2.60;;;;;;;;;;5038836;28;20179;-62
2022/04/17 01:00:14;;;;;;;2.93;2.60;;;;;;;;;;5068312;28;20680;-61
2022/04/17 01:02:46;;;;;;;3.13;2.60;;;;;;;;;;5069489;28;20213;-61
2022/04/17 01:05:19;;;;;;;4.00;2.80;;;;;;;;;;5050974;28;20682;-62
2022/04/17 01:08:03;;;;;;;3.47;3.03;;;;;;;;;;5065364;28;20249;-61
2022/04/17 01:10:35;;;;;;;2.43;2.23;;;;;;;;;;5071348;28;20263;-61
2022/04/17 01:13:08;;;;;;;3.37;2.87;;;;;;;;;;5046017;28;20221;-61
2022/04/17 01:15:40;;;;;;;2.70;2.50;;;;;;;;;;5051385;28;20194;-62
2022/04/17 01:18:12;;;;;;;3.50;2.97;;;;;;;;;;5050186;28;20204;-61
2022/04/17 01:20:42;;;;;;;3.40;3.10;;;;;;;;;;5068493;28;20205;-62
2022/04/17 01:28:41;;;;;;;2.40;2.20;;;;;;;;;;5068130;28;20188;-61
2022/04/17 01:31:08;;;;;;;3.00;2.60;;;;;;;;;;5057675;28;20356;-61
2022/04/17 01:33:40;;;;;;;2.83;2.53;;;;;;;;;;5056738;28;20225;-60
2022/04/17 01:36:07;;;;;;;3.07;2.77;;;;;;;;;;5068741;28;20858;-63
2022/04/17 01:38:34;;;;;;;2.60;2.40;;;;;;;;;;5067812;28;20190;-61
2022/04/17 01:41:01;;;;;;;2.83;2.50;;;;;;;;;;5065987;28;20209;-61
2022/04/17 01:43:28;;;;;;;2.53;2.30;;;;;;;;;;5062971;28;20190;-61
2022/04/17 01:45:55;;;;;;;2.43;2.23;;;;;;;;;;5068196;28;20686;-61
2022/04/17 01:48:22;;;;;;;2.20;2.00;;;;;;;;;;5067342;28;20194;-61
2022/04/17 01:50:50;;;;;;;2.73;2.33;;;;;;;;;;5036052;28;20315;-61
2022/04/17 01:53:17;;;;;;;3.73;2.27;;;;;;;;;;5042775;28;20210;-62
2022/04/17 01:55:44;;;;;;;3.50;2.37;;;;;;;;;;5064021;28;20240;-62
2022/04/17 01:58:11;;;;;;;2.53;2.30;;;;;;;;;;5049582;28;20228;-62
2022/04/17 02:00:38;;;;;;;2.53;2.33;;;;;;;;;;5067649;28;20239;-62
2022/04/17 02:03:05;;;;;;;2.57;2.33;;;;;;;;;;5064264;28;20221;-62
2022/04/17 02:05:32;;;;;;;2.50;2.30;;;;;;;;;;5038172;28;20248;-61
2022/04/17 02:07:59;;;;;;;2.23;2.00;;;;;;;;;;5055551;28;20233;-61
2022/04/17 02:10:27;;;;;;;3.27;2.37;;;;;;;;;;5030190;28;20252;-62
2022/04/17 02:12:54;;;;;;;2.83;1.97;;;;;;;;;;5044698;28;20201;-61
2022/04/17 02:15:21;;;;;;;2.67;2.20;;;;;;;;;;5043536;28;20195;-62
2022/04/17 02:17:48;;;;;;;2.53;2.27;;;;;;;;;;5043432;28;20182;-62
2022/04/17 02:20:15;;;;;;;4.30;2.07;;;;;;;;;;5043881;28;20214;-61
2022/04/17 02:22:44;;;;;;;1.83;1.47;;;;;;;;;;5029576;28;20683;-62
2022/04/17 02:25:12;;;;;;;2.80;2.43;;;;;;;;;;5048628;28;20535;-61
2022/04/17 02:27:39;;;;;;;2.47;2.17;;;;;;;;;;5046584;28;20244;-61
2022/04/17 02:30:08;;;;;;;2.30;2.10;;;;;;;;;;5052270;28;20206;-63
2022/04/17 02:32:35;;;;;;;2.60;2.10;;;;;;;;;;5044467;28;20218;-61
2022/04/17 02:35:03;;;;;;;2.53;2.10;;;;;;;;;;5046796;28;20202;-61
2022/04/17 02:37:30;;;;;;;2.23;2.03;;;;;;;;;;5044336;28;20781;-63
2022/04/17 02:39:58;;;;;;;2.30;2.10;;;;;;;;;;5035339;28;20210;-62
2022/04/17 02:42:25;;;;;;;2.03;1.90;;;;;;;;;;5062170;28;20247;-62
2022/04/17 02:44:52;;;;;;;2.13;1.83;;;;;;;;;;5026687;28;20279;-61
2022/04/17 02:50:06;;;;;;;2.50;2.10;;;;;;;;;;5046337;28;20186;-61
2022/04/17 02:52:33;;;;;;;2.50;2.30;;;;;;;;;;5054052;28;20572;-61
2022/04/17 02:55:00;;;;;;;2.80;2.53;;;;;;;;;;5030670;28;20233;-62
2022/04/17 02:57:28;;;;;;;2.70;1.90;;;;;;;;;;5045731;28;20643;-61
2022/04/17 02:59:55;;;;;;;2.17;1.90;;;;;;;;;;5047570;28;20198;-61
2022/04/17 03:07:54;;;;;;;2.77;1.80;;;;;;;;;;5054939;28;20309;-61
2022/04/17 03:10:22;;;;;;;1.67;1.57;;;;;;;;;;5066282;28;20185;-61
2022/04/17 03:12:49;;;;;;;1.80;1.63;;;;;;;;;;5048553;28;20193;-61
2022/04/17 03:15:17;;;;;;;1.67;1.57;;;;;;;;;;5064687;28;20202;-62
2022/04/17 03:17:49;;;;;;;1.83;1.73;;;;;;;;;;5064963;28;20197;-62
2022/04/17 03:20:19;;;;;;;3.27;1.83;;;;;;;;;;5044590;28;20202;-61
2022/04/17 03:22:46;;;;;;;2.10;1.70;;;;;;;;;;5066181;28;20275;-62
2022/04/17 03:25:13;;;;;;;1.93;1.73;;;;;;;;;;5064059;28;20264;-62
2022/04/17 03:27:43;;;;;;;1.67;1.57;;;;;;;;;;5065482;28;20190;-61
2022/04/17 03:30:10;;;;;;;1.80;1.70;;;;;;;;;;5065968;28;20228;-62
2022/04/17 03:32:38;;;;;;;2.63;2.20;;;;;;;;;;5062061;28;20221;-62
2022/04/17 03:35:05;;;;;;;2.73;1.63;;;;;;;;;;5063813;28;20210;-62
2022/04/17 03:37:33;;;;;;;1.83;1.60;;;;;;;;;;5069524;28;20206;-62
2022/04/17 03:40:00;;;;;;;1.70;1.57;;;;;;;;;;5068501;28;20198;-61
2022/04/17 03:42:27;;;;;;;1.70;1.60;;;;;;;;;;5073420;28;20218;-61
2022/04/17 03:44:54;;;;;;;2.23;2.03;;;;;;;;;;5060199;28;20925;-62
2022/04/17 03:47:21;;;;;;;2.20;1.77;;;;;;;;;;5047933;28;20194;-62
2022/04/17 03:49:49;;;;;;;2.03;1.73;;;;;;;;;;5047781;28;20721;-60
2022/04/17 03:52:16;;;;;;;2.57;1.87;;;;;;;;;;5065663;28;20198;-62
2022/04/17 03:54:43;;;;;;;2.50;2.03;;;;;;;;;;5066319;28;20205;-61
2022/04/17 03:57:10;;;;;;;2.00;1.80;;;;;;;;;;5062554;28;20259;-61
2022/04/17 03:59:37;;;;;;;1.63;1.53;;;;;;;;;;5046850;28;20194;-62
2022/04/17 04:02:04;;;;;;;1.70;1.60;;;;;;;;;;5035593;28;20225;-61
2022/04/17 04:04:31;;;;;;;1.73;1.63;;;;;;;;;;5068725;28;20205;-61
2022/04/17 04:06:59;;;;;;;2.20;1.80;;;;;;;;;;5062107;28;20271;-61
2022/04/17 04:09:26;;;;;;;2.47;1.60;;;;;;;;;;5069547;28;20212;-62
2022/04/17 04:11:53;;;;;;;1.90;1.60;;;;;;;;;;5051734;28;20574;-61
2022/04/17 04:14:20;;;;;;;1.73;1.50;;;;;;;;;;5069296;28;20198;-62
2022/04/17 04:16:47;;;;;;;2.07;1.87;;;;;;;;;;5068710;28;20690;-62
2022/04/17 04:19:14;;;;;;;1.60;1.50;;;;;;;;;;5062472;28;20222;-62
2022/04/17 04:21:48;;;;;;;1.43;1.33;;;;;;;;;;5068828;28;20205;-62
2022/04/17 04:24:15;;;;;;;2.13;1.20;;;;;;;;;;5069383;28;20205;-60
2022/04/17 04:26:44;;;;;;;1.60;1.50;;;;;;;;;;5070455;28;20762;-61
2022/04/17 04:29:14;;;;;;;1.70;1.60;;;;;;;;;;5049528;28;20206;-62
2022/04/17 04:31:45;;;;;;;1.93;1.60;;;;;;;;;;5066146;28;20576;-62
2022/04/17 04:34:17;;;;;;;2.07;1.60;;;;;;;;;;5068967;28;20194;-61
2022/04/17 04:36:48;;;;;;;1.60;1.50;;;;;;;;;;5068654;28;20255;-63
2022/04/17 04:39:16;;;;;;;1.90;1.50;;;;;;;;;;5067237;28;20205;-61
2022/04/17 04:41:47;;;;;;;1.90;1.43;;;;;;;;;;5069202;28;20182;-61
2022/04/17 04:44:19;;;;;;;1.73;1.63;;;;;;;;;;5077822;28;20209;-62
2022/04/17 04:46:50;;;;;;;2.07;1.87;;;;;;;;;;5044528;28;20632;-62
2022/04/17 04:49:32;;;;;;;2.67;1.70;;;;;;;;;;5049190;28;20199;-61
2022/04/17 04:52:05;;;;;;;2.10;1.57;;;;;;;;;;5063829;28;20647;-61
2022/04/17 04:54:39;;;;;;;1.40;1.30;;;;;;;;;;5069590;28;20204;-62
2022/04/17 04:57:08;;;;;;;2.00;1.80;;;;;;;;;;5063075;28;20212;-61
2022/04/17 04:59:38;;;;;;;2.20;2.00;;;;;;;;;;5069737;28;20282;-61
2022/04/17 05:02:08;;;;;;;1.60;1.50;;;;;;;;;;5069526;28;20668;-61
2022/04/17 05:04:40;;;;;;;1.63;1.53;;;;;;;;;;5069809;28;20208;-62
2022/04/17 05:07:11;;;;;;;2.47;1.30;;;;;;;;;;5060793;28;20222;-61
2022/04/17 05:09:42;;;;;;;1.43;1.33;;;;;;;;;;5069486;28;20266;-62
2022/04/17 05:12:23;;;;;;;2.07;1.97;;;;;;;;;;5068827;28;20211;-61
2022/04/17 05:14:53;;;;;;;2.13;2.03;;;;;;;;;;5066076;28;20661;-62
2022/04/17 05:17:24;;;;;;;1.43;1.30;;;;;;;;;;5068749;28;20639;-61
2022/04/17 05:19:54;;;;;;;2.00;1.50;;;;;;;;;;5064200;28;20209;-62
2022/04/17 05:22:31;;;;;;;1.40;1.30;;;;;;;;;;5068924;28;20214;-61
2022/04/17 05:24:58;;;;;;;1.43;1.33;;;;;;;;;;5066108;28;20189;-61
2022/04/17 05:27:27;;;;;;;2.70;1.50;;;;;;;;;;5068506;28;20248;-62
2022/04/17 05:29:54;;;;;;;1.67;1.20;;;;;;;;;;5069314;28;20201;-62
2022/04/17 05:32:22;;;;;;;1.73;1.40;;;;;;;;;;5064463;28;20240;-62
2022/04/17 05:34:49;;;;;;;1.90;1.70;;;;;;;;;;5068467;28;20263;-62
2022/04/17 05:37:18;;;;;;;2.27;2.07;;;;;;;;;;5066190;28;20201;-63
2022/04/17 05:39:49;;;;;;;2.33;1.80;;;;;;;;;;5068580;28;20202;-62
2022/04/17 05:42:24;;;;;;;1.70;1.60;;;;;;;;;;5068312;28;20218;-62
2022/04/17 05:44:55;;;;;;;1.63;1.37;;;;;;;;;;5063307;28;20583;-61
2022/04/17 05:47:29;;;;;;;1.90;1.60;;;;;;;;;;5065493;28;20194;-62
2022/04/17 05:50:09;;;;;;;1.93;1.80;;;;;;;;;;5068172;28;20190;-61
2022/04/17 05:52:47;;;;;;;1.80;1.70;;;;;;;;;;5068382;28;20201;-62
2022/04/17 05:55:18;;;;;;;1.60;1.50;;;;;;;;;;5063100;28;20654;-62
2022/04/17 05:57:45;;;;;;;1.60;1.40;;;;;;;;;;5068123;28;20198;-61
2022/04/17 06:00:14;;;;;;;2.47;1.70;;;;;;;;;;5068452;28;20235;-61
2022/04/17 06:02:41;;;;;;;1.70;1.60;;;;;;;;;;5068512;28;20613;-61
2022/04/17 06:05:09;;;;;;;1.77;1.67;;;;;;;;;;5048101;28;20193;-61
2022/04/17 06:07:36;;;;;;;2.33;1.67;;;;;;;;;;5046524;28;20237;-62
2022/04/17 06:10:09;;;;;;;2.63;1.93;;;;;;;;;;5050942;28;20259;-62
2022/04/17 06:12:42;;;;;;;2.70;1.90;;;;;;;;;;5051026;28;20539;-63
2022/04/17 06:15:14;;;;;;;2.13;1.80;;;;;;;;;;5050439;28;20193;-62
2022/04/17 06:17:46;;;;;;;4.80;1.80;;;;;;;;;;5055836;28;20661;-62
2022/04/17 06:20:16;;;;;;;3.20;1.87;;;;;;;;;;5063440;28;20202;-62
2022/04/17 06:22:43;;;;;;;1.50;1.40;;;;;;;;;;5049599;28;20220;-62
2022/04/17 06:25:12;;;;;;;2.77;1.67;;;;;;;;;;5085693;28;20197;-62
2022/04/17 06:27:46;;;;;;;1.70;1.60;;;;;;;;;;5035209;28;20190;-62
2022/04/17 06:30:21;;;;;;;1.70;1.60;;;;;;;;;;5067179;28;20208;-62
2022/04/17 06:32:51;;;;;;;2.70;2.50;;;;;;;;;;5054438;28;20288;-62
2022/04/17 06:35:18;;;;;;;2.40;2.20;;;;;;;;;;5067814;28;20247;-62
2022/04/17 06:37:53;;;;;;;2.23;1.50;;;;;;;;;;5041617;28;20835;-62
2022/04/17 06:40:21;;;;;;;2.27;1.60;;;;;;;;;;5066789;28;20630;-62
2022/04/17 06:42:55;;;;;;;2.07;1.87;;;;;;;;;;5066998;28;20221;-61
2022/04/17 06:45:22;;;;;;;2.40;1.57;;;;;;;;;;5039747;28;20224;-63
2022/04/17 06:47:49;;;;;;;1.67;1.57;;;;;;;;;;5065862;28;20197;-62
2022/04/17 06:50:18;;;;;;;2.50;2.13;;;;;;;;;;5065463;28;20225;-61
2022/04/17 06:52:45;;;;;;;1.40;1.27;;;;;;;;;;5064422;28;20198;-61
2022/04/17 06:55:13;;;;;;;1.60;1.33;;;;;;;;;;5057277;28;20229;-61
2022/04/17 06:57:48;;;;;;;2.77;1.73;;;;;;;;;;5064218;28;20267;-61
2022/04/17 07:00:17;;;;;;;2.50;2.03;;;;;;;;;;5059911;28;20197;-61
2022/04/17 07:02:44;;;;;;;1.50;1.40;;;;;;;;;;5049549;28;20638;-61
2022/04/17 07:05:12;;;;;;;2.03;1.50;;;;;;;;;;5067590;28;20247;-61
2022/04/17 07:07:40;;;;;;;2.20;1.73;;;;;;;;;;5056283;28;20225;-62
2022/04/17 07:10:07;;;;;;;1.67;1.57;;;;;;;;;;5043983;28;20208;-61
2022/04/17 07:12:35;;;;;;;1.80;1.63;;;;;;;;;;5058477;28;20239;-61
2022/04/17 07:15:09;;;;;;;1.70;1.60;;;;;;;;;;5031648;28;20671;-61
2022/04/17 07:17:41;;;;;;;2.30;1.60;;;;;;;;;;5060829;28;20208;-61
2022/04/17 07:20:12;;;;;;;1.67;1.30;;;;;;;;;;5050043;28;20205;-61
2022/04/17 07:22:45;;;;;;;1.97;1.63;;;;;;;;;;5065019;28;20210;-63
2022/04/17 07:25:20;;;;;;;2.43;1.60;;;;;;;;;;5048372;28;20215;-61
2022/04/17 07:27:51;;;;;;;1.60;1.23;;;;;;;;;;5061885;28;20209;-62
2022/04/17 07:30:26;;;;;;;1.37;1.27;;;;;;;;;;5042214;28;20206;-62
2022/04/17 07:33:09;;;;;;;1.57;1.47;;;;;;;;;;5034763;28;20282;-62
2022/04/17 07:35:41;;;;;;;2.03;1.60;;;;;;;;;;5071134;28;20201;-63
2022/04/17 07:38:08;;;;;;;2.40;1.47;;;;;;;;;;5069087;28;20205;-61
2022/04/17 07:40:36;;;;;;;2.03;1.63;;;;;;;;;;5069797;28;20202;-61
2022/04/17 07:43:04;;;;;;;1.47;1.30;;;;;;;;;;5027752;28;20245;-62
2022/04/17 07:45:33;;;;;;;1.50;1.30;;;;;;;;;;5069424;28;20190;-62
2022/04/17 07:48:03;;;;;;;1.50;1.40;;;;;;;;;;5078880;28;20838;-61
2022/04/17 07:50:34;;;;;;;2.80;1.30;;;;;;;;;;5069332;28;20194;-61
2022/04/17 07:53:02;;;;;;;1.77;1.40;;;;;;;;;;5067894;28;20186;-63
2022/04/17 07:55:34;;;;;;;2.08;1.48;;;;;;;;;;5059406;28;20443;-62
2022/04/17 07:58:24;;;;;;;2.43;1.20;;;;;;;;;;5076723;28;20196;-64
2022/04/17 08:01:09;;;;;;;1.60;1.50;;;;;;;;;;5058014;28;20227;-63
2022/04/17 08:06:16;;;;;;;1.90;1.30;;;;;;;;;;5077948;28;20630;-63
2022/04/17 08:08:45;;;;;;;1.73;1.30;;;;;;;;;;5074754;28;20237;-62
2022/04/17 08:11:12;;;;;;;1.97;1.23;;;;;;;;;;5055206;28;20270;-63
2022/04/17 08:13:42;;;;;;;2.47;1.43;;;;;;;;;;5079104;28;20201;-63
2022/04/17 08:16:11;;;;;;;1.60;1.27;;;;;;;;;;5078555;28;20209;-62
2022/04/17 08:18:42;;;;;;;2.37;1.13;;;;;;;;;;5076606;28;20666;-62
2022/04/17 08:21:12;;;;;;;3.80;1.50;;;;;;;;;;5072422;28;20872;-62
2022/04/17 08:23:39;;;;;;;1.63;1.10;;;;;;;;;;5062563;28;20213;-63
2022/04/17 08:26:06;;;;;;;4.67;1.60;;;;;;;;;;5062643;28;20194;-62
2022/04/17 08:28:34;;;;;;;1.67;1.30;;;;;;;;;;5078739;28;20186;-63
2022/04/17 08:31:01;;;;;;;1.30;1.20;;;;;;;;;;5057618;28;20193;-62
2022/04/17 08:33:28;;;;;;;1.57;1.27;;;;;;;;;;5084192;28;20221;-62
2022/04/17 08:35:57;;;;;;;2.17;1.43;;;;;;;;;;5084205;28;20212;-63
2022/04/17 08:38:24;;;;;;;3.73;1.67;;;;;;;;;;5086704;28;20198;-63
2022/04/17 08:40:53;;;;;;;1.63;1.30;;;;;;;;;;5059819;28;20205;-64
2022/04/17 08:43:21;;;;;;;2.73;1.60;;;;;;;;;;5073492;28;20260;-62
2022/04/17 08:45:54;;;;;;;1.60;1.50;;;;;;;;;;5050296;28;20206;-62
2022/04/17 08:48:26;;;;;;;1.97;1.37;;;;;;;;;;5070960;28;20208;-62
2022/04/17 08:50:58;;;;;;;3.43;1.10;;;;;;;;;;5060746;28;20189;-62
2022/04/17 08:53:29;;;;;;;1.53;1.23;;;;;;;;;;5071972;28;20194;-63
2022/04/17 08:55:59;;;;;;;1.17;1.07;;;;;;;;;;5072792;28;20883;-63
2022/04/17 08:58:27;;;;;;;2.90;1.30;;;;;;;;;;5074891;28;20205;-63
2022/04/17 09:00:54;;;;;;;2.57;1.40;;;;;;;;;;5074025;28;20193;-62
2022/04/17 09:03:23;;;;;;;2.20;1.43;;;;;;;;;;5057962;28;20662;-62
2022/04/17 09:05:50;;;;;;;2.77;1.33;;;;;;;;;;5065274;28;21029;-62
2022/04/17 09:08:19;;;;;;;1.10;0.87;;;;;;;;;;5071698;28;20233;-63
2022/04/17 09:10:56;;;;;;;1.33;1.23;;;;;;;;;;5073764;28;20216;-63
2022/04/17 09:13:41;;;;;;;1.20;1.10;;;;;;;;;;5075111;28;20212;-63
2022/04/17 09:16:09;;;;;;;1.53;1.33;;;;;;;;;;5073740;28;20911;-63
2022/04/17 09:18:39;;;;;;;1.00;0.83;;;;;;;;;;5077043;28;20205;-63
2022/04/17 09:21:06;;;;;;;1.80;1.10;;;;;;;;;;5070719;28;20221;-62
2022/04/17 09:23:37;;;;;;;1.40;1.30;;;;;;;;;;5072869;28;20225;-62
2022/04/17 09:26:08;;;;;;;1.67;1.00;;;;;;;;;;5070361;28;20197;-62
2022/04/17 09:28:36;;;;;;;1.23;1.00;;;;;;;;;;5072029;28;20224;-62
2022/04/17 09:31:12;;;;;;;1.30;1.20;;;;;;;;;;5064081;28;20194;-62
2022/04/17 09:33:40;;;;;;;0.93;0.90;;;;;;;;;;5073654;28;20201;-61
2022/04/17 09:36:12;;;;;;;1.40;1.30;;;;;;;;;;5059016;28;20744;-61
2022/04/17 09:38:42;;;;;;;1.30;1.20;;;;;;;;;;5076096;28;20855;-62
2022/04/17 09:41:13;;;;;;;1.10;1.00;;;;;;;;;;5073718;28;20215;-61
2022/04/17 09:43:43;;;;;;;2.03;1.30;;;;;;;;;;5073384;28;20313;-64
2022/04/17 09:46:13;;;;;;;25.40;5.13;;;;;;;;;;5064177;28;20193;-62
2022/04/17 09:48:46;;;;;;;42.57;7.70;;;;;;;;;;5063229;28;20201;-61
2022/04/17 09:51:22;;;;;;;67.60;12.27;;;;;;;;;;5056428;28;20282;-62
2022/04/17 09:53:59;;;;;;;45.53;9.90;;;;;;;;;;5079145;28;20658;-64
2022/04/17 09:56:33;;;;;;;37.23;8.43;;;;;;;;;;5071585;28;20236;-63
2022/04/17 09:59:01;;;;;;;28.80;7.30;;;;;;;;;;5078057;28;20201;-62
2022/04/17 10:01:28;;;;;;;25.90;6.03;;;;;;;;;;5081076;28;20248;-63
2022/04/17 10:03:56;;;;;;;32.40;6.53;;;;;;;;;;5058872;28;20225;-61
2022/04/17 10:06:23;;;;;;;20.97;5.67;;;;;;;;;;5072071;28;20911;-62
2022/04/17 10:08:56;;;;;;;22.93;6.70;;;;;;;;;;5057507;28;20661;-64
2022/04/17 10:11:23;;;;;;;16.60;4.60;;;;;;;;;;5082647;28;20189;-63
2022/04/17 10:13:51;;;;;;;16.97;4.50;;;;;;;;;;5080465;28;20266;-62
2022/04/17 10:16:21;;;;;;;17.03;4.70;;;;;;;;;;5075977;28;20448;-62
2022/04/17 10:18:49;;;;;;;16.67;4.57;;;;;;;;;;5075139;28;20289;-61
2022/04/17 10:21:17;;;;;;;10.67;3.83;;;;;;;;;;5071832;28;20248;-63
2022/04/17 10:23:45;;;;;;;11.90;4.00;;;;;;;;;;5074774;28;20217;-62
2022/04/17 10:26:15;;;;;;;8.17;3.37;;;;;;;;;;5074435;28;20637;-62
2022/04/17 10:28:46;;;;;;;7.20;3.17;;;;;;;;;;5079006;28;20663;-62
2022/04/17 10:31:15;;;;;;;8.53;3.03;;;;;;;;;;5075624;28;20236;-63
2022/04/17 10:33:48;;;;;;;6.37;2.87;;;;;;;;;;5079413;28;20633;-62
2022/04/17 10:36:27;;;;;;;9.17;2.90;;;;;;;;;;5075988;28;20568;-61
2022/04/17 10:39:12;;;;;;;6.87;2.87;;;;;;;;;;5077466;28;20220;-61
2022/04/17 10:41:41;;;;;;;4.97;2.30;;;;;;;;;;5079394;28;20205;-62
2022/04/17 10:44:12;;;;;;;4.27;2.60;;;;;;;;;;5074234;28;20229;-62
2022/04/17 10:46:47;;;;;;;3.63;1.87;;;;;;;;;;5080874;28;20202;-62
2022/04/17 10:49:16;;;;;;;6.13;2.47;;;;;;;;;;5078114;28;20185;-62
2022/04/17 10:51:49;;;;;;;3.53;2.23;;;;;;;;;;5080363;28;20189;-62
2022/04/17 10:54:22;;;;;;;4.17;2.30;;;;;;;;;;5075586;28;20205;-61
2022/04/17 10:56:55;;;;;;;5.57;2.07;;;;;;;;;;5075752;28;20228;-62
2022/04/17 10:59:23;;;;;;;5.27;2.07;;;;;;;;;;5080985;28;20740;-61
2022/04/17 11:01:52;;;;;;;5.33;2.03;;;;;;;;;;5078718;28;20201;-61
2022/04/17 11:04:30;;;;;;;3.17;1.70;;;;;;;;;;5079986;28;20217;-61
2022/04/17 11:07:06;;;;;;;3.27;1.63;;;;;;;;;;5070497;28;20240;-62
2022/04/17 11:09:41;;;;;;;3.57;1.80;;;;;;;;;;5076677;28;20246;-62
2022/04/17 11:12:11;;;;;;;2.17;1.63;;;;;;;;;;5080693;28;20650;-62
2022/04/17 11:14:39;;;;;;;2.10;1.60;;;;;;;;;;5058025;28;20615;-63
2022/04/17 11:17:12;;;;;;;2.33;1.53;;;;;;;;;;5073709;28;20197;-62
2022/04/17 11:19:47;;;;;;;4.73;2.20;;;;;;;;;;5072319;28;20221;-64
2022/04/17 11:22:16;;;;;;;2.87;1.60;;;;;;;;;;5072971;28;20984;-62
2022/04/17 11:24:56;;;;;;;3.10;1.70;;;;;;;;;;5073627;28;20222;-62
2022/04/17 11:27:32;;;;;;;2.27;1.70;;;;;;;;;;5075581;28;20229;-63
2022/04/17 11:30:00;;;;;;;2.13;1.63;;;;;;;;;;5078103;28;20205;-62
2022/04/17 11:32:30;;;;;;;2.03;1.43;;;;;;;;;;5071408;28;20237;-62
2022/04/17 11:34:58;;;;;;;2.57;1.60;;;;;;;;;;5070400;28;20217;-62
2022/04/17 11:37:27;;;;;;;1.87;1.37;;;;;;;;;;5072582;28;20263;-62
2022/04/17 11:39:55;;;;;;;1.57;1.17;;;;;;;;;;5075941;28;20204;-61
2022/04/17 11:42:22;;;;;;;3.87;1.50;;;;;;;;;;5076162;28;20198;-61
2022/04/17 11:44:50;;;;;;;1.60;1.50;;;;;;;;;;5046163;28;20233;-61
2022/04/17 11:47:18;;;;;;;2.60;1.40;;;;;;;;;;5068132;28;20232;-61
2022/04/17 11:49:47;;;;;;;3.00;1.63;;;;;;;;;;5069954;28;20305;-61
2022/04/17 11:52:18;;;;;;;2.03;1.50;;;;;;;;;;5051118;28;20277;-61
2022/04/17 11:54:46;;;;;;;1.77;1.30;;;;;;;;;;5067822;28;20653;-62
2022/04/17 11:57:14;;;;;;;2.03;1.20;;;;;;;;;;5045059;28;20221;-63
2022/04/17 11:59:55;;;;;;;1.20;1.10;;;;;;;;;;5070621;28;20671;-62
2022/04/17 12:02:24;;;;;;;1.77;1.20;;;;;;;;;;5070482;28;20288;-63
2022/04/17 12:04:53;;;;;;;1.67;1.40;;;;;;;;;;5068571;28;20218;-61
2022/04/17 12:07:21;;;;;;;2.37;1.30;;;;;;;;;;5071347;28;20800;-61
2022/04/17 12:09:48;;;;;;;1.83;1.20;;;;;;;;;;5075615;28;20197;-61
2022/04/17 12:12:19;;;;;;;3.20;1.50;;;;;;;;;;5076134;28;20192;-62
2022/04/17 12:14:52;;;;;;;5.43;2.20;;;;;;;;;;5075282;28;20235;-62
2022/04/17 12:17:21;;;;;;;6.50;2.13;;;;;;;;;;5058521;28;20743;-61
2022/04/17 12:19:56;;;;;;;8.93;3.10;;;;;;;;;;5077533;28;20217;-60
2022/04/17 12:22:26;;;;;;;4.10;2.30;;;;;;;;;;5078992;28;20227;-61
2022/04/17 12:24:58;;;;;;;7.33;2.63;;;;;;;;;;5083116;28;20308;-62
2022/04/17 12:27:28;;;;;;;5.07;2.40;;;;;;;;;;5080797;28;20198;-61
2022/04/17 12:29:59;;;;;;;6.27;2.40;;;;;;;;;;5065321;28;20520;-62
2022/04/17 12:32:26;;;;;;;4.17;2.23;;;;;;;;;;5047265;28;20285;-61
2022/04/17 12:34:57;;;;;;;4.83;2.23;;;;;;;;;;5085082;28;20650;-62
2022/04/17 12:37:29;;;;;;;3.47;1.70;;;;;;;;;;5085311;28;20206;-61
2022/04/17 12:40:15;;;;;;;5.53;1.93;;;;;;;;;;5083744;28;20260;-62
2022/04/17 12:42:45;;;;;;;3.90;2.00;;;;;;;;;;5060624;28;20190;-62
2022/04/17 12:45:24;;;;;;;3.70;2.03;;;;;;;;;;5069718;28;20925;-61
2022/04/17 12:48:06;;;;;;;4.53;2.13;;;;;;;;;;5066961;28;20185;-61
2022/04/17 12:50:37;;;;;;;4.50;1.97;;;;;;;;;;5080532;28;20200;-61
2022/04/17 12:53:07;;;;;;;4.03;1.70;;;;;;;;;;5076355;28;20194;-61
2022/04/17 12:55:41;;;;;;;4.83;2.10;;;;;;;;;;5075854;28;20220;-62
2022/04/17 12:58:09;;;;;;;3.77;1.63;;;;;;;;;;5059884;28;20223;-63
2022/04/17 13:00:36;;;;;;;3.07;1.73;;;;;;;;;;5081676;28;20197;-61
2022/04/17 13:03:13;;;;;;;2.93;1.40;;;;;;;;;;5079373;28;20782;-64
2022/04/17 13:05:40;;;;;;;2.23;1.40;;;;;;;;;;5082204;28;20658;-61
2022/04/17 13:08:09;;;;;;;2.50;1.50;;;;;;;;;;5079115;28;20235;-61
2022/04/17 13:10:41;;;;;;;3.93;1.70;;;;;;;;;;5063028;28;20233;-62
2022/04/17 13:13:08;;;;;;;2.10;1.40;;;;;;;;;;5061459;28;20192;-61
2022/04/17 13:15:37;;;;;;;1.70;1.17;;;;;;;;;;5078970;28;20229;-62
2022/04/17 13:18:04;;;;;;;1.57;1.20;;;;;;;;;;5081954;28;20205;-63
2022/04/17 13:20:32;;;;;;;2.07;1.43;;;;;;;;;;5060063;28;20197;-61
2022/04/17 13:22:59;;;;;;;3.60;1.30;;;;;;;;;;5078137;28;20270;-62
2022/04/17 13:25:26;;;;;;;2.53;1.37;;;;;;;;;;5078861;28;20721;-62
2022/04/17 13:27:53;;;;;;;1.53;1.20;;;;;;;;;;5082094;28;20649;-61
2022/04/17 13:30:23;;;;;;;2.83;1.33;;;;;;;;;;5080088;28;20186;-61
2022/04/17 13:32:54;;;;;;;2.37;1.13;;;;;;;;;;5075536;28;20220;-62
2022/04/17 13:35:22;;;;;;;2.77;1.10;;;;;;;;;;5082703;28;20212;-61
2022/04/17 13:38:12;;;;;;;1.77;1.30;;;;;;;;;;5084263;28;20189;-61
2022/04/17 13:40:45;;;;;;;1.83;1.23;;;;;;;;;;5079044;28;20212;-62
2022/04/17 13:43:12;;;;;;;2.53;1.33;;;;;;;;;;5057067;28;20690;-60
2022/04/17 13:45:39;;;;;;;1.70;1.20;;;;;;;;;;5057981;28;20221;-62
2022/04/17 13:48:07;;;;;;;1.43;1.07;;;;;;;;;;5077968;28;20255;-61
2022/04/17 13:50:38;;;;;;;1.57;1.00;;;;;;;;;;5077859;28;20189;-61
2022/04/17 13:53:06;;;;;;;2.77;1.20;;;;;;;;;;5077390;28;20208;-61
2022/04/17 13:55:33;;;;;;;1.43;1.10;;;;;;;;;;5071186;28;20228;-62
2022/04/17 13:58:00;;;;;;;1.80;1.10;;;;;;;;;;5062310;28;20193;-62
2022/04/17 14:00:30;;;;;;;1.27;1.17;;;;;;;;;;5078460;28;20209;-61
2022/04/17 14:02:59;;;;;;;1.87;1.07;;;;;;;;;;5074824;28;20190;-61
2022/04/17 14:05:29;;;;;;;1.37;1.20;;;;;;;;;;5083996;28;20220;-62
2022/04/17 14:07:57;;;;;;;1.67;1.13;;;;;;;;;;5067300;28;20233;-62
2022/04/17 14:10:24;;;;;;;0.80;0.80;;;;;;;;;;5071736;28;20196;-62
2022/04/17 14:12:52;;;;;;;1.53;1.03;;;;;;;;;;5072134;28;20261;-61
2022/04/17 14:15:19;;;;;;;1.30;1.03;;;;;;;;;;5067017;28;20212;-61
2022/04/17 14:17:46;;;;;;;1.80;1.13;;;;;;;;;;5072983;28;20227;-63
2022/04/17 14:20:13;;;;;;;1.53;0.90;;;;;;;;;;5068995;28;20204;-61
2022/04/17 14:22:41;;;;;;;1.13;1.03;;;;;;;;;;5075851;28;20292;-61
2022/04/17 14:25:08;;;;;;;2.40;1.00;;;;;;;;;;5070353;28;20225;-65
2022/04/17 14:27:35;;;;;;;3.07;1.07;;;;;;;;;;5070071;28;20197;-61
2022/04/17 14:30:03;;;;;;;2.63;0.90;;;;;;;;;;5075071;28;20205;-63
2022/04/17 14:32:30;;;;;;;3.17;1.00;;;;;;;;;;5069194;28;20209;-61
2022/04/17 14:34:57;;;;;;;2.67;1.07;;;;;;;;;;5058496;28;20815;-61
2022/04/17 14:37:24;;;;;;;1.60;1.30;;;;;;;;;;5073490;28;20201;-61
2022/04/17 14:39:51;;;;;;;3.30;1.50;;;;;;;;;;5071389;28;20712;-61
2022/04/17 14:42:19;;;;;;;3.17;1.10;;;;;;;;;;5051729;28;20209;-63
2022/04/17 14:44:46;;;;;;;2.50;1.20;;;;;;;;;;5067669;28;20584;-62
2022/04/17 14:47:14;;;;;;;2.87;0.90;;;;;;;;;;5061082;28;20204;-63
2022/04/17 14:49:44;;;;;;;1.83;0.90;;;;;;;;;;5065444;28;20199;-62
2022/04/17 14:52:14;;;;;;;1.70;0.90;;;;;;;;;;5034984;28;20202;-62
2022/04/17 14:54:43;;;;;;;0.97;0.87;;;;;;;;;;5072254;28;20210;-64
2022/04/17 14:57:14;;;;;;;2.07;1.00;;;;;;;;;;5063613;28;20680;-61
2022/04/17 14:59:44;;;;;;;1.60;1.07;;;;;;;;;;5045923;28;20217;-63
2022/04/17 15:02:16;;;;;;;1.83;0.97;;;;;;;;;;5072335;28;20209;-64
2022/04/17 15:04:47;;;;;;;1.07;0.80;;;;;;;;;;5071719;28;20217;-62
2022/04/17 15:07:14;;;;;;;1.53;0.83;;;;;;;;;;5047860;28;20571;-62
2022/04/17 15:09:41;;;;;;;2.03;0.93;;;;;;;;;;5073419;28;20194;-62
2022/04/17 15:12:08;;;;;;;2.17;0.97;;;;;;;;;;5076403;28;20626;-62
2022/04/17 15:14:36;;;;;;;1.70;0.93;;;;;;;;;;5078737;28;20198;-62